sensor_id;sensor_type;location;lat;lon;timestamp;temperature;humidity
60353;DHT22;46196;52.970;6.954;2023-07-13T00:02:07;16.10;99.90
60353;DHT22;46196;52.970;6.954;2023-07-13T00:04:32;15.80;99.90
60353;DHT22;46196;52.970;6.954;2023-07-13T00:06:58;15.90;99.90
60353;DHT22;46196;52.970;6.954;2023-07-13T00:09:24;15.70;99.90
60353;DHT22;46196;52.970;6.954;2023-07-13T00:11:53;16.10;99.90
60353;DHT22;46196;52.970;6.954;2023-07-13T00:14:20;15.70;99.90
60353;DHT22;46196;52.970;6.954;2023-07-13T00:16:46;15.70;99.90
60353;DHT22;46196;52.970;6.954;2023-07-13T00:19:13;15.60;99.90
60353;DHT22;46196;52.970;6.954;2023-07-13T00:21:40;15.60;99.90
60353;DHT22;46196;52.970;6.954;2023-07-13T00:24:07;15.70;99.90
60353;DHT22;46196;52.970;6.954;2023-07-13T00:26:34;15.60;99.90
60353;DHT22;46196;52.970;6.954;2023-07-13T00:29:00;15.60;99.90
60353;DHT22;46196;52.970;6.954;2023-07-13T00:31:26;16.80;99.90
60353;DHT22;46196;52.970;6.954;2023-07-13T00:33:54;15.70;99.90
60353;DHT22;46196;52.970;6.954;2023-07-13T00:36:20;15.60;99.90
60353;DHT22;46196;52.970;6.954;2023-07-13T00:38:47;15.80;99.90
60353;DHT22;46196;52.970;6.954;2023-07-13T00:41:13;15.70;99.90
60353;DHT22;46196;52.970;6.954;2023-07-13T00:46:18;15.60;99.90
60353;DHT22;46196;52.970;6.954;2023-07-13T00:48:46;16.40;99.90
60353;DHT22;46196;52.970;6.954;2023-07-13T00:51:15;15.80;99.90
60353;DHT22;46196;52.970;6.954;2023-07-13T00:53:42;15.70;99.90
60353;DHT22;46196;52.970;6.954;2023-07-13T00:56:08;15.80;99.90
60353;DHT22;46196;52.970;6.954;2023-07-13T00:58:35;15.70;99.90
60353;DHT22;46196;52.970;6.954;2023-07-13T01:03:27;15.70;99.90
60353;DHT22;46196;52.970;6.954;2023-07-13T01:05:53;15.70;99.90
60353;DHT22;46196;52.970;6.954;2023-07-13T01:08:20;15.70;99.90
60353;DHT22;46196;52.970;6.954;2023-07-13T01:10:57;15.70;99.90
60353;DHT22;46196;52.970;6.954;2023-07-13T01:13:24;16.30;99.90
60353;DHT22;46196;52.970;6.954;2023-07-13T01:15:51;15.70;99.90
60353;DHT22;46196;52.970;6.954;2023-07-13T01:18:25;15.50;99.90
60353;DHT22;46196;52.970;6.954;2023-07-13T01:20:59;15.80;99.90
60353;DHT22;46196;52.970;6.954;2023-07-13T01:23:26;15.60;99.90
60353;DHT22;46196;52.970;6.954;2023-07-13T01:25:53;17.20;99.90
60353;DHT22;46196;52.970;6.954;2023-07-13T01:28:19;15.60;99.90
60353;DHT22;46196;52.970;6.954;2023-07-13T01:30:46;15.70;99.90
60353;DHT22;46196;52.970;6.954;2023-07-13T01:33:14;15.20;99.90
60353;DHT22;46196;52.970;6.954;2023-07-13T01:38:09;15.80;99.90
60353;DHT22;46196;52.970;6.954;2023-07-13T01:43:01;15.80;99.90
60353;DHT22;46196;52.970;6.954;2023-07-13T01:45:27;15.90;99.90
60353;DHT22;46196;52.970;6.954;2023-07-13T01:50:20;16.00;99.90
60353;DHT22;46196;52.970;6.954;2023-07-13T01:52:45;15.80;99.90
60353;DHT22;46196;52.970;6.954;2023-07-13T01:55:12;15.80;99.90
60353;DHT22;46196;52.970;6.954;2023-07-13T01:57:39;16.00;99.90
60353;DHT22;46196;52.970;6.954;2023-07-13T02:00:06;15.70;99.90
60353;DHT22;46196;52.970;6.954;2023-07-13T02:04:59;15.80;99.90
60353;DHT22;46196;52.970;6.954;2023-07-13T02:07:24;12.10;99.90
60353;DHT22;46196;52.970;6.954;2023-07-13T02:17:10;15.70;99.90
60353;DHT22;46196;52.970;6.954;2023-07-13T02:19:36;17.50;99.90
60353;DHT22;46196;52.970;6.954;2023-07-13T02:22:02;16.00;99.90
60353;DHT22;46196;52.970;6.954;2023-07-13T02:24:28;16.70;99.90
60353;DHT22;46196;52.970;6.954;2023-07-13T02:29:20;15.80;99.90
60353;DHT22;46196;52.970;6.954;2023-07-13T02:34:12;15.70;99.90
60353;DHT22;46196;52.970;6.954;2023-07-13T02:36:38;16.80;99.90
60353;DHT22;46196;52.970;6.954;2023-07-13T02:39:05;16.90;99.90
60353;DHT22;46196;52.970;6.954;2023-07-13T02:41:31;15.80;99.90
60353;DHT22;46196;52.970;6.954;2023-07-13T02:44:00;15.70;99.90
60353;DHT22;46196;52.970;6.954;2023-07-13T02:46:34;15.90;99.90
60353;DHT22;46196;52.970;6.954;2023-07-13T02:51:27;16.90;99.90
60353;DHT22;46196;52.970;6.954;2023-07-13T02:53:53;15.80;99.90
60353;DHT22;46196;52.970;6.954;2023-07-13T02:56:22;15.70;99.90
60353;DHT22;46196;52.970;6.954;2023-07-13T02:58:48;16.10;99.90
60353;DHT22;46196;52.970;6.954;2023-07-13T03:01:14;16.10;99.90
60353;DHT22;46196;52.970;6.954;2023-07-13T03:03:43;15.10;99.90
60353;DHT22;46196;52.970;6.954;2023-07-13T03:06:09;16.30;99.90
60353;DHT22;46196;52.970;6.954;2023-07-13T03:08:34;15.50;99.90
60353;DHT22;46196;52.970;6.954;2023-07-13T03:11:06;16.00;99.90
60353;DHT22;46196;52.970;6.954;2023-07-13T03:13:32;17.00;99.90
60353;DHT22;46196;52.970;6.954;2023-07-13T03:15:58;16.00;99.90
60353;DHT22;46196;52.970;6.954;2023-07-13T03:18:26;15.60;99.90
60353;DHT22;46196;52.970;6.954;2023-07-13T03:20:53;15.50;99.90
60353;DHT22;46196;52.970;6.954;2023-07-13T03:23:20;16.00;99.90
60353;DHT22;46196;52.970;6.954;2023-07-13T03:28:13;15.50;99.90
60353;DHT22;46196;52.970;6.954;2023-07-13T03:33:06;16.80;99.90
60353;DHT22;46196;52.970;6.954;2023-07-13T03:37:59;15.90;99.90
60353;DHT22;46196;52.970;6.954;2023-07-13T03:40:26;17.10;99.90
60353;DHT22;46196;52.970;6.954;2023-07-13T03:45:18;15.30;99.90
60353;DHT22;46196;52.970;6.954;2023-07-13T03:47:44;15.00;99.90
60353;DHT22;46196;52.970;6.954;2023-07-13T03:57:28;15.60;99.90
60353;DHT22;46196;52.970;6.954;2023-07-13T03:59:54;15.80;99.90
60353;DHT22;46196;52.970;6.954;2023-07-13T04:04:46;15.60;99.90
60353;DHT22;46196;52.970;6.954;2023-07-13T04:09:38;15.30;99.90
60353;DHT22;46196;52.970;6.954;2023-07-13T04:14:30;15.80;99.90
60353;DHT22;46196;52.970;6.954;2023-07-13T04:16:56;15.80;99.90
60353;DHT22;46196;52.970;6.954;2023-07-13T04:19:22;15.70;99.90
60353;DHT22;46196;52.970;6.954;2023-07-13T04:21:47;16.30;99.90
60353;DHT22;46196;52.970;6.954;2023-07-13T04:29:07;16.80;99.90
60353;DHT22;46196;52.970;6.954;2023-07-13T04:31:33;15.80;99.90
60353;DHT22;46196;52.970;6.954;2023-07-13T04:36:25;15.50;99.90
60353;DHT22;46196;52.970;6.954;2023-07-13T04:41:20;17.00;99.90
60353;DHT22;46196;52.970;6.954;2023-07-13T04:46:15;16.40;99.90
60353;DHT22;46196;52.970;6.954;2023-07-13T04:48:43;15.70;99.90
60353;DHT22;46196;52.970;6.954;2023-07-13T04:51:09;15.80;99.90
60353;DHT22;46196;52.970;6.954;2023-07-13T04:56:02;15.70;99.90
60353;DHT22;46196;52.970;6.954;2023-07-13T04:58:28;17.90;99.90
60353;DHT22;46196;52.970;6.954;2023-07-13T05:01:00;15.80;99.90
60353;DHT22;46196;52.970;6.954;2023-07-13T05:06:00;15.10;99.90
60353;DHT22;46196;52.970;6.954;2023-07-13T05:10:52;15.90;99.90
60353;DHT22;46196;52.970;6.954;2023-07-13T05:15:44;16.40;99.90
60353;DHT22;46196;52.970;6.954;2023-07-13T05:18:10;15.70;99.90
60353;DHT22;46196;52.970;6.954;2023-07-13T05:23:02;16.20;99.90
60353;DHT22;46196;52.970;6.954;2023-07-13T05:27:54;15.70;99.90
60353;DHT22;46196;52.970;6.954;2023-07-13T05:30:20;16.00;99.90
60353;DHT22;46196;52.970;6.954;2023-07-13T05:32:46;15.80;99.90
60353;DHT22;46196;52.970;6.954;2023-07-13T05:35:12;15.60;99.90
60353;DHT22;46196;52.970;6.954;2023-07-13T05:37:37;16.10;99.90
60353;DHT22;46196;52.970;6.954;2023-07-13T05:42:30;16.20;99.90
60353;DHT22;46196;52.970;6.954;2023-07-13T05:44:57;15.90;99.90
60353;DHT22;46196;52.970;6.954;2023-07-13T05:47:22;16.10;99.90
60353;DHT22;46196;52.970;6.954;2023-07-13T05:54:40;16.00;99.90
60353;DHT22;46196;52.970;6.954;2023-07-13T05:57:06;16.20;99.90
60353;DHT22;46196;52.970;6.954;2023-07-13T05:59:32;16.30;99.90
60353;DHT22;46196;52.970;6.954;2023-07-13T06:01:57;16.30;99.90
60353;DHT22;46196;52.970;6.954;2023-07-13T06:06:49;16.40;99.90
60353;DHT22;46196;52.970;6.954;2023-07-13T06:09:15;16.20;99.90
60353;DHT22;46196;52.970;6.954;2023-07-13T06:11:40;16.40;99.90
60353;DHT22;46196;52.970;6.954;2023-07-13T06:14:06;17.10;99.90
60353;DHT22;46196;52.970;6.954;2023-07-13T06:16:32;17.00;99.90
60353;DHT22;46196;52.970;6.954;2023-07-13T06:18:58;17.00;99.90
60353;DHT22;46196;52.970;6.954;2023-07-13T06:21:24;16.80;99.90
60353;DHT22;46196;52.970;6.954;2023-07-13T06:23:51;16.80;99.90
60353;DHT22;46196;52.970;6.954;2023-07-13T06:26:18;17.00;99.90
60353;DHT22;46196;52.970;6.954;2023-07-13T06:28:45;16.50;99.90
60353;DHT22;46196;52.970;6.954;2023-07-13T06:31:12;17.10;99.90
60353;DHT22;46196;52.970;6.954;2023-07-13T06:33:38;16.80;99.90
60353;DHT22;46196;52.970;6.954;2023-07-13T06:36:05;17.00;99.90
60353;DHT22;46196;52.970;6.954;2023-07-13T06:38:33;17.30;99.90
60353;DHT22;46196;52.970;6.954;2023-07-13T06:40:59;17.60;99.90
60353;DHT22;46196;52.970;6.954;2023-07-13T06:43:24;17.10;99.90
60353;DHT22;46196;52.970;6.954;2023-07-13T06:45:54;17.00;99.90
60353;DHT22;46196;52.970;6.954;2023-07-13T06:48:20;17.60;99.90
60353;DHT22;46196;52.970;6.954;2023-07-13T06:50:47;17.40;99.90
60353;DHT22;46196;52.970;6.954;2023-07-13T06:55:39;17.40;99.90
60353;DHT22;46196;52.970;6.954;2023-07-13T06:58:05;17.50;99.90
60353;DHT22;46196;52.970;6.954;2023-07-13T07:00:31;17.60;99.90
60353;DHT22;46196;52.970;6.954;2023-07-13T07:02:57;17.70;99.90
60353;DHT22;46196;52.970;6.954;2023-07-13T07:05:23;17.80;99.90
60353;DHT22;46196;52.970;6.954;2023-07-13T07:07:54;18.70;99.90
60353;DHT22;46196;52.970;6.954;2023-07-13T07:10:20;18.50;99.90
60353;DHT22;46196;52.970;6.954;2023-07-13T07:12:46;18.10;99.90
60353;DHT22;46196;52.970;6.954;2023-07-13T07:15:13;18.30;99.90
60353;DHT22;46196;52.970;6.954;2023-07-13T07:17:39;18.20;99.90
60353;DHT22;46196;52.970;6.954;2023-07-13T07:20:05;18.40;99.90
60353;DHT22;46196;52.970;6.954;2023-07-13T07:22:31;18.60;99.90
60353;DHT22;46196;52.970;6.954;2023-07-13T07:27:24;18.70;99.90
60353;DHT22;46196;52.970;6.954;2023-07-13T07:29:50;18.90;99.90
60353;DHT22;46196;52.970;6.954;2023-07-13T07:32:16;19.20;99.90
60353;DHT22;46196;52.970;6.954;2023-07-13T07:34:42;19.70;99.90
60353;DHT22;46196;52.970;6.954;2023-07-13T07:37:11;20.00;99.90
60353;DHT22;46196;52.970;6.954;2023-07-13T07:39:37;19.50;99.90
60353;DHT22;46196;52.970;6.954;2023-07-13T07:42:03;19.90;99.90
60353;DHT22;46196;52.970;6.954;2023-07-13T07:44:31;19.70;99.90
60353;DHT22;46196;52.970;6.954;2023-07-13T07:46:56;19.60;99.90
60353;DHT22;46196;52.970;6.954;2023-07-13T07:49:22;19.70;99.90
60353;DHT22;46196;52.970;6.954;2023-07-13T07:51:48;19.30;99.90
60353;DHT22;46196;52.970;6.954;2023-07-13T07:54:13;19.90;99.90
60353;DHT22;46196;52.970;6.954;2023-07-13T07:56:40;19.90;99.90
60353;DHT22;46196;52.970;6.954;2023-07-13T07:59:06;18.80;99.90
60353;DHT22;46196;52.970;6.954;2023-07-13T08:01:31;19.00;99.90
60353;DHT22;46196;52.970;6.954;2023-07-13T08:03:57;17.90;99.90
60353;DHT22;46196;52.970;6.954;2023-07-13T08:06:23;20.00;99.90
60353;DHT22;46196;52.970;6.954;2023-07-13T08:08:49;19.60;99.90
60353;DHT22;46196;52.970;6.954;2023-07-13T08:11:16;19.60;99.90
60353;DHT22;46196;52.970;6.954;2023-07-13T08:13:42;19.50;99.90
60353;DHT22;46196;52.970;6.954;2023-07-13T08:16:07;19.50;99.90
60353;DHT22;46196;52.970;6.954;2023-07-13T08:18:33;19.60;99.90
60353;DHT22;46196;52.970;6.954;2023-07-13T08:21:04;19.50;99.90
60353;DHT22;46196;52.970;6.954;2023-07-13T08:23:30;19.80;99.90
60353;DHT22;46196;52.970;6.954;2023-07-13T08:25:55;19.20;99.90
60353;DHT22;46196;52.970;6.954;2023-07-13T08:28:22;19.20;99.90
60353;DHT22;46196;52.970;6.954;2023-07-13T08:30:48;19.10;99.90
60353;DHT22;46196;52.970;6.954;2023-07-13T08:33:21;19.50;99.90
60353;DHT22;46196;52.970;6.954;2023-07-13T08:35:49;19.30;99.90
60353;DHT22;46196;52.970;6.954;2023-07-13T08:38:16;19.90;99.90
60353;DHT22;46196;52.970;6.954;2023-07-13T08:40:43;20.60;99.90
60353;DHT22;46196;52.970;6.954;2023-07-13T08:43:16;20.20;99.90
60353;DHT22;46196;52.970;6.954;2023-07-13T08:48:33;20.60;99.90
60353;DHT22;46196;52.970;6.954;2023-07-13T08:51:09;20.50;99.90
60353;DHT22;46196;52.970;6.954;2023-07-13T08:53:45;21.00;99.90
60353;DHT22;46196;52.970;6.954;2023-07-13T08:56:22;21.00;99.90
60353;DHT22;46196;52.970;6.954;2023-07-13T08:58:51;21.30;99.90
60353;DHT22;46196;52.970;6.954;2023-07-13T09:04:21;21.30;99.90
60353;DHT22;46196;52.970;6.954;2023-07-13T09:07:23;21.00;99.90
60353;DHT22;46196;52.970;6.954;2023-07-13T09:17:51;20.10;99.90
60353;DHT22;46196;52.970;6.954;2023-07-13T09:22:53;20.40;99.90
60353;DHT22;46196;52.970;6.954;2023-07-13T09:25:33;20.00;99.90
60353;DHT22;46196;52.970;6.954;2023-07-13T09:28:05;18.90;99.90
60353;DHT22;46196;52.970;6.954;2023-07-13T09:31:04;19.60;99.90
60353;DHT22;46196;52.970;6.954;2023-07-13T09:33:31;19.70;99.90
60353;DHT22;46196;52.970;6.954;2023-07-13T09:35:57;19.30;99.90
60353;DHT22;46196;52.970;6.954;2023-07-13T09:38:27;19.30;99.90
60353;DHT22;46196;52.970;6.954;2023-07-13T09:46:52;18.90;99.90
60353;DHT22;46196;52.970;6.954;2023-07-13T09:49:18;19.80;99.90
60353;DHT22;46196;52.970;6.954;2023-07-13T09:51:44;21.60;99.90
60353;DHT22;46196;52.970;6.954;2023-07-13T09:54:20;18.60;99.90
60353;DHT22;46196;52.970;6.954;2023-07-13T09:56:46;19.50;99.90
60353;DHT22;46196;52.970;6.954;2023-07-13T09:59:20;18.20;99.90
60353;DHT22;46196;52.970;6.954;2023-07-13T10:01:46;18.20;99.90
60353;DHT22;46196;52.970;6.954;2023-07-13T10:04:17;18.10;99.90
60353;DHT22;46196;52.970;6.954;2023-07-13T10:06:44;18.10;99.90
60353;DHT22;46196;52.970;6.954;2023-07-13T10:09:15;17.70;99.90
60353;DHT22;46196;52.970;6.954;2023-07-13T10:14:21;18.10;99.90
60353;DHT22;46196;52.970;6.954;2023-07-13T10:16:58;18.40;99.90
60353;DHT22;46196;52.970;6.954;2023-07-13T10:19:29;17.60;99.90
60353;DHT22;46196;52.970;6.954;2023-07-13T10:22:01;18.30;99.90
60353;DHT22;46196;52.970;6.954;2023-07-13T10:24:33;18.90;99.90
60353;DHT22;46196;52.970;6.954;2023-07-13T10:27:41;19.00;99.90
60353;DHT22;46196;52.970;6.954;2023-07-13T10:30:17;19.60;99.90
60353;DHT22;46196;52.970;6.954;2023-07-13T10:32:45;19.90;99.90
60353;DHT22;46196;52.970;6.954;2023-07-13T10:35:14;19.70;99.90
60353;DHT22;46196;52.970;6.954;2023-07-13T10:37:54;19.90;99.90
60353;DHT22;46196;52.970;6.954;2023-07-13T10:43:23;20.20;99.90
60353;DHT22;46196;52.970;6.954;2023-07-13T10:45:51;20.60;99.90
60353;DHT22;46196;52.970;6.954;2023-07-13T10:48:17;20.60;99.90
60353;DHT22;46196;52.970;6.954;2023-07-13T10:50:46;20.40;99.90
60353;DHT22;46196;52.970;6.954;2023-07-13T10:53:29;20.00;99.90
60353;DHT22;46196;52.970;6.954;2023-07-13T10:56:24;20.50;99.90
60353;DHT22;46196;52.970;6.954;2023-07-13T10:59:13;21.30;99.90
60353;DHT22;46196;52.970;6.954;2023-07-13T11:01:57;20.80;99.90
60353;DHT22;46196;52.970;6.954;2023-07-13T11:04:25;20.90;99.90
60353;DHT22;46196;52.970;6.954;2023-07-13T11:06:57;21.30;99.90
60353;DHT22;46196;52.970;6.954;2023-07-13T11:09:35;21.10;99.90
60353;DHT22;46196;52.970;6.954;2023-07-13T11:19:51;21.30;99.90
60353;DHT22;46196;52.970;6.954;2023-07-13T11:22:23;20.70;99.90
60353;DHT22;46196;52.970;6.954;2023-07-13T11:25:00;21.00;99.90
60353;DHT22;46196;52.970;6.954;2023-07-13T11:27:40;21.20;99.90
60353;DHT22;46196;52.970;6.954;2023-07-13T11:32:42;20.10;99.90
60353;DHT22;46196;52.970;6.954;2023-07-13T11:35:23;20.00;99.90
60353;DHT22;46196;52.970;6.954;2023-07-13T11:37:51;19.90;99.90
60353;DHT22;46196;52.970;6.954;2023-07-13T11:40:26;19.80;99.90
60353;DHT22;46196;52.970;6.954;2023-07-13T11:42:59;20.40;99.90
60353;DHT22;46196;52.970;6.954;2023-07-13T11:45:25;19.90;99.90
60353;DHT22;46196;52.970;6.954;2023-07-13T11:47:51;19.30;99.90
60353;DHT22;46196;52.970;6.954;2023-07-13T11:50:22;18.70;99.90
60353;DHT22;46196;52.970;6.954;2023-07-13T11:52:49;18.90;99.90
60353;DHT22;46196;52.970;6.954;2023-07-13T11:55:18;17.90;99.90
60353;DHT22;46196;52.970;6.954;2023-07-13T11:57:58;17.80;99.90
60353;DHT22;46196;52.970;6.954;2023-07-13T12:00:29;18.10;99.90
60353;DHT22;46196;52.970;6.954;2023-07-13T12:02:59;17.50;99.90
60353;DHT22;46196;52.970;6.954;2023-07-13T12:05:26;17.40;99.90
60353;DHT22;46196;52.970;6.954;2023-07-13T12:07:54;17.70;99.90
60353;DHT22;46196;52.970;6.954;2023-07-13T12:10:26;17.90;99.90
60353;DHT22;46196;52.970;6.954;2023-07-13T12:13:00;18.70;99.90
60353;DHT22;46196;52.970;6.954;2023-07-13T12:15:43;18.40;99.90
60353;DHT22;46196;52.970;6.954;2023-07-13T12:18:20;18.80;99.90
60353;DHT22;46196;52.970;6.954;2023-07-13T12:20:50;19.10;99.90
60353;DHT22;46196;52.970;6.954;2023-07-13T12:25:50;19.70;99.90
60353;DHT22;46196;52.970;6.954;2023-07-13T12:31:01;19.90;99.90
60353;DHT22;46196;52.970;6.954;2023-07-13T12:33:29;20.40;99.90
60353;DHT22;46196;52.970;6.954;2023-07-13T12:35:55;20.00;99.90
60353;DHT22;46196;52.970;6.954;2023-07-13T12:38:24;20.00;99.90
60353;DHT22;46196;52.970;6.954;2023-07-13T12:40:51;20.40;99.90
60353;DHT22;46196;52.970;6.954;2023-07-13T12:43:20;21.50;99.90
60353;DHT22;46196;52.970;6.954;2023-07-13T12:46:02;21.30;99.90
60353;DHT22;46196;52.970;6.954;2023-07-13T12:48:28;21.50;99.90
60353;DHT22;46196;52.970;6.954;2023-07-13T12:50:55;21.80;99.90
60353;DHT22;46196;52.970;6.954;2023-07-13T12:53:29;21.40;99.90
60353;DHT22;46196;52.970;6.954;2023-07-13T12:56:01;21.50;99.90
60353;DHT22;46196;52.970;6.954;2023-07-13T12:58:29;20.90;99.90
60353;DHT22;46196;52.970;6.954;2023-07-13T13:00:58;21.70;99.90
60353;DHT22;46196;52.970;6.954;2023-07-13T13:03:32;21.60;99.90
60353;DHT22;46196;52.970;6.954;2023-07-13T13:06:07;21.40;99.90
60353;DHT22;46196;52.970;6.954;2023-07-13T13:08:47;21.40;99.90
60353;DHT22;46196;52.970;6.954;2023-07-13T13:11:18;21.30;99.90
60353;DHT22;46196;52.970;6.954;2023-07-13T13:13:44;21.10;99.90
60353;DHT22;46196;52.970;6.954;2023-07-13T13:16:34;21.80;99.90
60353;DHT22;46196;52.970;6.954;2023-07-13T13:19:14;22.30;99.90
60353;DHT22;46196;52.970;6.954;2023-07-13T13:21:42;22.60;99.90
60353;DHT22;46196;52.970;6.954;2023-07-13T13:24:22;22.00;99.90
60353;DHT22;46196;52.970;6.954;2023-07-13T13:26:50;22.30;99.90
60353;DHT22;46196;52.970;6.954;2023-07-13T13:29:19;22.20;99.90
60353;DHT22;46196;52.970;6.954;2023-07-13T13:31:45;22.40;99.90
60353;DHT22;46196;52.970;6.954;2023-07-13T13:34:14;22.60;99.90
60353;DHT22;46196;52.970;6.954;2023-07-13T13:36:41;23.60;98.50
60353;DHT22;46196;52.970;6.954;2023-07-13T13:39:33;22.40;99.00
60353;DHT22;46196;52.970;6.954;2023-07-13T13:42:00;22.90;97.00
60353;DHT22;46196;52.970;6.954;2023-07-13T13:44:25;23.00;97.40
60353;DHT22;46196;52.970;6.954;2023-07-13T13:46:53;22.40;98.00
60353;DHT22;46196;52.970;6.954;2023-07-13T13:49:30;23.10;97.60
60353;DHT22;46196;52.970;6.954;2023-07-13T13:51:56;23.40;97.50
60353;DHT22;46196;52.970;6.954;2023-07-13T13:54:23;23.30;97.90
60353;DHT22;46196;52.970;6.954;2023-07-13T13:56:51;22.70;96.90
60353;DHT22;46196;52.970;6.954;2023-07-13T13:59:18;22.70;96.90
60353;DHT22;46196;52.970;6.954;2023-07-13T14:01:45;22.80;96.30
60353;DHT22;46196;52.970;6.954;2023-07-13T14:04:21;22.40;95.40
60353;DHT22;46196;52.970;6.954;2023-07-13T14:06:48;22.20;95.40
60353;DHT22;46196;52.970;6.954;2023-07-13T14:09:17;22.90;95.50
60353;DHT22;46196;52.970;6.954;2023-07-13T14:11:44;24.60;96.50
60353;DHT22;46196;52.970;6.954;2023-07-13T14:14:22;23.20;96.20
60353;DHT22;46196;52.970;6.954;2023-07-13T14:16:49;23.90;96.70
60353;DHT22;46196;52.970;6.954;2023-07-13T14:19:19;23.60;97.30
60353;DHT22;46196;52.970;6.954;2023-07-13T14:21:45;23.70;95.90
60353;DHT22;46196;52.970;6.954;2023-07-13T14:24:13;23.60;95.30
60353;DHT22;46196;52.970;6.954;2023-07-13T14:26:40;23.60;94.80
60353;DHT22;46196;52.970;6.954;2023-07-13T14:29:14;23.50;94.20
60353;DHT22;46196;52.970;6.954;2023-07-13T14:31:41;24.20;94.70
60353;DHT22;46196;52.970;6.954;2023-07-13T14:34:09;23.70;95.10
60353;DHT22;46196;52.970;6.954;2023-07-13T14:36:41;25.40;94.90
60353;DHT22;46196;52.970;6.954;2023-07-13T14:39:19;23.90;94.10
60353;DHT22;46196;52.970;6.954;2023-07-13T14:41:45;23.90;93.20
60353;DHT22;46196;52.970;6.954;2023-07-13T14:44:15;23.70;93.60
60353;DHT22;46196;52.970;6.954;2023-07-13T14:46:44;23.70;93.70
60353;DHT22;46196;52.970;6.954;2023-07-13T14:49:25;24.20;94.70
60353;DHT22;46196;52.970;6.954;2023-07-13T14:51:51;23.90;95.00
60353;DHT22;46196;52.970;6.954;2023-07-13T14:54:17;24.60;92.80
60353;DHT22;46196;52.970;6.954;2023-07-13T14:56:43;24.30;93.10
60353;DHT22;46196;52.970;6.954;2023-07-13T14:59:09;24.70;91.80
60353;DHT22;46196;52.970;6.954;2023-07-13T15:01:36;24.40;92.00
60353;DHT22;46196;52.970;6.954;2023-07-13T15:04:02;24.20;91.80
60353;DHT22;46196;52.970;6.954;2023-07-13T15:06:35;22.90;90.80
60353;DHT22;46196;52.970;6.954;2023-07-13T15:09:12;23.70;91.30
60353;DHT22;46196;52.970;6.954;2023-07-13T15:11:38;23.50;91.70
60353;DHT22;46196;52.970;6.954;2023-07-13T15:14:04;23.60;92.20
60353;DHT22;46196;52.970;6.954;2023-07-13T15:16:29;23.30;91.20
60353;DHT22;46196;52.970;6.954;2023-07-13T15:18:55;23.30;91.30
60353;DHT22;46196;52.970;6.954;2023-07-13T15:21:23;23.60;91.60
60353;DHT22;46196;52.970;6.954;2023-07-13T15:23:50;23.90;91.40
60353;DHT22;46196;52.970;6.954;2023-07-13T15:26:18;23.50;90.80
60353;DHT22;46196;52.970;6.954;2023-07-13T15:28:45;24.70;91.70
60353;DHT22;46196;52.970;6.954;2023-07-13T15:31:24;23.10;91.00
60353;DHT22;46196;52.970;6.954;2023-07-13T15:33:51;24.10;91.40
60353;DHT22;46196;52.970;6.954;2023-07-13T15:36:22;24.20;90.20
60353;DHT22;46196;52.970;6.954;2023-07-13T15:38:51;25.30;88.70
60353;DHT22;46196;52.970;6.954;2023-07-13T15:41:23;24.20;89.30
60353;DHT22;46196;52.970;6.954;2023-07-13T15:43:50;24.20;88.00
60353;DHT22;46196;52.970;6.954;2023-07-13T15:46:18;24.10;90.20
60353;DHT22;46196;52.970;6.954;2023-07-13T15:48:45;23.90;88.70
60353;DHT22;46196;52.970;6.954;2023-07-13T15:51:23;23.80;89.90
60353;DHT22;46196;52.970;6.954;2023-07-13T15:53:49;23.90;90.70
60353;DHT22;46196;52.970;6.954;2023-07-13T15:56:19;23.60;85.00
60353;DHT22;46196;52.970;6.954;2023-07-13T15:58:45;24.30;86.60
60353;DHT22;46196;52.970;6.954;2023-07-13T16:01:12;25.80;86.60
60353;DHT22;46196;52.970;6.954;2023-07-13T16:03:40;24.90;83.80
60353;DHT22;46196;52.970;6.954;2023-07-13T16:06:22;24.90;84.40
60353;DHT22;46196;52.970;6.954;2023-07-13T16:08:51;23.90;84.10
60353;DHT22;46196;52.970;6.954;2023-07-13T16:11:21;25.00;82.30
60353;DHT22;46196;52.970;6.954;2023-07-13T16:13:48;25.00;82.70
60353;DHT22;46196;52.970;6.954;2023-07-13T16:16:22;24.20;81.00
60353;DHT22;46196;52.970;6.954;2023-07-13T16:18:54;25.20;81.70
60353;DHT22;46196;52.970;6.954;2023-07-13T16:21:26;25.40;78.70
60353;DHT22;46196;52.970;6.954;2023-07-13T16:23:53;26.10;79.60
60353;DHT22;46196;52.970;6.954;2023-07-13T16:28:54;24.60;79.70
60353;DHT22;46196;52.970;6.954;2023-07-13T16:31:29;24.30;83.80
60353;DHT22;46196;52.970;6.954;2023-07-13T16:33:57;23.90;84.90
60353;DHT22;46196;52.970;6.954;2023-07-13T16:36:25;24.30;82.90
60353;DHT22;46196;52.970;6.954;2023-07-13T16:38:51;22.80;82.20
60353;DHT22;46196;52.970;6.954;2023-07-13T16:41:17;24.10;82.90
60353;DHT22;46196;52.970;6.954;2023-07-13T16:43:42;25.70;84.80
60353;DHT22;46196;52.970;6.954;2023-07-13T16:46:12;23.80;84.20
60353;DHT22;46196;52.970;6.954;2023-07-13T16:48:40;23.80;86.10
60353;DHT22;46196;52.970;6.954;2023-07-13T16:51:07;23.60;86.10
60353;DHT22;46196;52.970;6.954;2023-07-13T16:53:33;23.50;87.40
60353;DHT22;46196;52.970;6.954;2023-07-13T16:56:00;23.40;88.80
60353;DHT22;46196;52.970;6.954;2023-07-13T16:58:28;23.40;88.30
60353;DHT22;46196;52.970;6.954;2023-07-13T17:00:57;23.30;88.80
60353;DHT22;46196;52.970;6.954;2023-07-13T17:03:23;23.20;89.10
60353;DHT22;46196;52.970;6.954;2023-07-13T17:05:52;23.20;88.30
60353;DHT22;46196;52.970;6.954;2023-07-13T17:08:22;23.00;89.50
60353;DHT22;46196;52.970;6.954;2023-07-13T17:10:52;23.10;90.30
60353;DHT22;46196;52.970;6.954;2023-07-13T17:13:20;22.80;90.70
60353;DHT22;46196;52.970;6.954;2023-07-13T17:15:48;22.80;91.50
60353;DHT22;46196;52.970;6.954;2023-07-13T17:18:18;22.90;92.00
60353;DHT22;46196;52.970;6.954;2023-07-13T17:20:45;22.50;91.90
60353;DHT22;46196;52.970;6.954;2023-07-13T17:23:16;24.10;92.40
60353;DHT22;46196;52.970;6.954;2023-07-13T17:25:44;23.10;92.30
60353;DHT22;46196;52.970;6.954;2023-07-13T17:28:10;23.10;92.60
60353;DHT22;46196;52.970;6.954;2023-07-13T17:30:40;23.10;92.20
60353;DHT22;46196;52.970;6.954;2023-07-13T17:35:47;22.90;91.60
60353;DHT22;46196;52.970;6.954;2023-07-13T17:38:13;22.60;91.30
60353;DHT22;46196;52.970;6.954;2023-07-13T17:40:38;23.30;91.40
60353;DHT22;46196;52.970;6.954;2023-07-13T17:43:05;23.20;91.40
60353;DHT22;46196;52.970;6.954;2023-07-13T17:45:31;23.20;91.70
60353;DHT22;46196;52.970;6.954;2023-07-13T17:47:59;22.80;92.00
60353;DHT22;46196;52.970;6.954;2023-07-13T17:50:30;22.90;92.30
60353;DHT22;46196;52.970;6.954;2023-07-13T17:53:19;23.70;92.60
60353;DHT22;46196;52.970;6.954;2023-07-13T17:55:46;22.60;92.60
60353;DHT22;46196;52.970;6.954;2023-07-13T17:58:17;22.70;92.80
60353;DHT22;46196;52.970;6.954;2023-07-13T18:00:44;23.00;93.70
60353;DHT22;46196;52.970;6.954;2023-07-13T18:03:17;23.20;94.30
60353;DHT22;46196;52.970;6.954;2023-07-13T18:05:45;22.20;94.10